الصفحة الرئيسية
METAR-TAF:

METAR-TAF

مطار :

كوبنهاغن, الدنمارك

مطار كوبنهاغن

دائرة عرض: 55-37N, خط طول: 012-39E, ارتفاع: 5 متر

مراقبة الطقس الحالي

تاريخ ووقت الإصدار 37 دقيقة قبل الساعة 02:50UTC
ريح 8 عقدة من الشرق
درجة الحرارة 1°درجة مئوية
الرطوبة 86%
ضغط 1023 hPa
الرؤية 10 كم أو أكثر
غيوم متفرقة على ارتفاع 3600 قدم

METAR: EKCH 200250Z 09008KT 9999 SCT036 01/M01 Q1023 R04L/310158 R04R/310157 R12/310158 NOSIG

زمن: 04:27 (03:27 UTC)

توقعات

تاريخ ووقت الإصدار 4ساعات و 12 دقيقة قبل الساعة 23:15UTC
التوقعات صالحة من20 الساعة 00 UTC إلى 20 الساعة 24 UTC
ريح 10 عقدة من الشرق
الرؤية: 8000 متر
غيوم مفككة على ارتفاع 2000 قدم

TAF: EKCH 192315Z 2000/2024 09010KT 8000 BKN020

أرصاد الطقس والتوقعات من أكثر من 4000 مطار (تقارير الطقس للمطار METAR والتنبؤ بالطقس بالمطارTAF).

المحطات المتاحة هي النقط الصفراء والحمراء على الخريطة.

حرك المؤشر فوق النقطة لمعرفة اسم المحطة.

ثم انقر لمعرفة أرصاد وتوقعات الطقس.

لتغيير الخارطة: اضغط على الأزرار الخضراء مع رمز الصليب الأسود للتكبير. على الزر الأخضر مع شرطة للتصغير، أو على الأسهم الخضراء للخرائط المجاورة.


METAR-TAF: